Time;durP1;ratioP1;P1;durP2;ratioP2;P2;SDS_P1;SDS_P2;PMS_P1;PMS_P2;Temp;Humidity;BMP_temperature;BMP_pressure;BME280_temperature;BME280_humidity;BME280_pressure;Samples;Min_cycle;Max_cycle;Signal;HPM_P1;HPM_P2
2022/09/12 00:02:12;;;;;;;;;;;14.60;99.90;;;;;;5131832;27;19977;-75
2022/09/12 00:04:37;;;;;;;;;;;14.60;99.90;;;;;;5133487;27;19946;-75
2022/09/12 00:07:03;;;;;;;;;;;14.60;99.90;;;;;;5105504;27;20036;-75
2022/09/12 00:09:28;;;;;;;;;;;14.60;99.90;;;;;;5130289;27;19923;-75
2022/09/12 00:11:54;;;;;;;;;;;14.60;99.90;;;;;;5111085;27;19989;-75
2022/09/12 00:14:19;;;;;;;;;;;14.50;99.90;;;;;;5135599;27;19923;-76
2022/09/12 00:16:45;;;;;;;;;;;14.50;99.90;;;;;;5117184;27;19923;-76
2022/09/12 00:19:11;;;;;;;;;;;14.50;99.90;;;;;;5118819;27;19930;-75
2022/09/12 00:21:37;;;;;;;;;;;14.50;99.90;;;;;;5135370;27;19923;-75
2022/09/12 00:24:04;;;;;;;;;;;14.50;99.90;;;;;;5136006;27;19946;-75
2022/09/12 00:26:29;;;;;;;;;;;14.40;99.90;;;;;;5102171;27;19927;-75
2022/09/12 00:28:55;;;;;;;;;;;14.40;99.90;;;;;;5118557;27;19947;-75
2022/09/12 00:31:22;;;;;;;;;;;14.30;99.90;;;;;;5092530;27;19930;-75
2022/09/12 00:33:48;;;;;;;;;;;14.30;99.90;;;;;;5128013;27;19930;-75
2022/09/12 00:36:16;;;;;;;;;;;14.30;99.90;;;;;;5135744;27;19923;-75
2022/09/12 00:38:42;;;;;;;;;;;14.20;99.90;;;;;;5131066;27;20438;-76
2022/09/12 00:41:34;;;;;;;;;;;14.20;99.90;;;;;;5110099;27;20014;-76
2022/09/12 00:44:01;;;;;;;;;;;14.20;99.90;;;;;;5128276;27;19998;-76
2022/09/12 00:46:36;;;;;;;;;;;14.20;99.90;;;;;;5112761;27;19931;-76
2022/09/12 00:49:11;;;;;;;;;;;14.20;99.90;;;;;;5135790;27;19930;-75
2022/09/12 00:51:38;;;;;;;;;;;14.20;99.90;;;;;;5135138;27;19972;-75
2022/09/12 00:54:09;;;;;;;;;;;14.20;99.90;;;;;;5134398;27;20459;-75
2022/09/12 00:56:35;;;;;;;;;;;14.30;99.90;;;;;;5117821;27;20379;-75
2022/09/12 00:59:04;;;;;;;;;;;14.20;99.90;;;;;;5135153;27;20343;-76
2022/09/12 01:01:29;;;;;;;;;;;14.20;99.90;;;;;;5116794;27;20039;-76
2022/09/12 01:03:55;;;;;;;;;;;14.20;99.90;;;;;;5118256;27;20421;-75
2022/09/12 01:06:24;;;;;;;;;;;14.20;99.90;;;;;;5118283;27;19924;-76
2022/09/12 01:08:51;;;;;;;;;;;14.20;99.90;;;;;;5126392;27;19976;-75
2022/09/12 01:11:18;;;;;;;;;;;14.20;99.90;;;;;;5101128;28;20301;-75
2022/09/12 01:13:44;;;;;;;;;;;14.10;99.90;;;;;;5113246;27;19927;-75
2022/09/12 01:16:10;;;;;;;;;;;14.20;99.90;;;;;;5131458;27;19924;-75
2022/09/12 01:18:40;;;;;;;;;;;14.10;99.90;;;;;;5126679;27;19927;-75
2022/09/12 01:21:15;;;;;;;;;;;14.20;99.90;;;;;;5104608;27;19983;-75
2022/09/12 01:23:40;;;;;;;;;;;14.20;99.90;;;;;;5134977;27;19923;-76
2022/09/12 01:26:14;;;;;;;;;;;14.20;99.90;;;;;;5134102;27;20392;-75
2022/09/12 01:29:02;;;;;;;;;;;14.20;99.90;;;;;;5119135;27;20323;-75
2022/09/12 01:31:27;;;;;;;;;;;14.10;99.90;;;;;;5124536;27;19924;-76
2022/09/12 01:33:57;;;;;;;;;;;14.10;99.90;;;;;;5105639;27;19960;-76
2022/09/12 01:36:41;;;;;;;;;;;14.10;99.90;;;;;;5117172;27;19931;-76
2022/09/12 01:39:10;;;;;;;;;;;14.20;99.90;;;;;;5117333;27;19973;-75
2022/09/12 01:41:49;;;;;;;;;;;14.10;99.90;;;;;;5134305;27;20296;-75
2022/09/12 01:44:33;;;;;;;;;;;14.10;99.90;;;;;;5117517;27;19924;-75
2022/09/12 01:47:02;;;;;;;;;;;14.10;99.90;;;;;;5102978;27;20006;-75
2022/09/12 01:49:35;;;;;;;;;;;14.10;99.90;;;;;;5111502;27;19935;-75
2022/09/12 01:52:04;;;;;;;;;;;14.10;99.90;;;;;;5121435;27;19924;-75
2022/09/12 01:54:34;;;;;;;;;;;14.10;99.90;;;;;;5133785;27;19924;-75
2022/09/12 01:57:02;;;;;;;;;;;14.10;99.90;;;;;;5133754;27;19970;-75
2022/09/12 01:59:48;;;;;;;;;;;14.10;99.90;;;;;;5112912;28;19923;-75
2022/09/12 02:02:20;;;;;;;;;;;14.10;99.90;;;;;;5106945;27;19927;-75
2022/09/12 02:04:51;;;;;;;;;;;14.00;99.90;;;;;;5129314;27;19924;-75
2022/09/12 02:07:19;;;;;;;;;;;14.00;99.90;;;;;;5116987;27;19924;-75
2022/09/12 02:09:58;;;;;;;;;;;14.10;99.90;;;;;;5105902;27;19930;-75
2022/09/12 02:12:26;;;;;;;;;;;14.00;99.90;;;;;;5116890;27;19924;-75
2022/09/12 02:14:54;;;;;;;;;;;14.10;99.90;;;;;;5118854;27;20445;-75
2022/09/12 02:17:22;;;;;;;;;;;14.00;99.90;;;;;;5126662;27;19923;-75
2022/09/12 02:19:50;;;;;;;;;;;14.00;99.90;;;;;;5133915;27;20028;-75
2022/09/12 02:22:17;;;;;;;;;;;14.00;99.90;;;;;;5132514;27;20423;-75
2022/09/12 02:24:45;;;;;;;;;;;14.00;99.90;;;;;;5115804;27;20058;-75
2022/09/12 02:27:13;;;;;;;;;;;13.90;99.90;;;;;;5125878;27;20294;-75
2022/09/12 02:29:39;;;;;;;;;;;13.90;99.90;;;;;;5120832;27;19923;-76
2022/09/12 02:32:08;;;;;;;;;;;13.90;99.90;;;;;;5118652;27;20019;-75
2022/09/12 02:34:51;;;;;;;;;;;13.90;99.90;;;;;;5130322;27;19931;-75
2022/09/12 02:37:24;;;;;;;;;;;13.90;99.90;;;;;;5112538;27;20289;-75
2022/09/12 02:39:54;;;;;;;;;;;13.80;99.90;;;;;;5110080;27;19930;-75
2022/09/12 02:42:21;;;;;;;;;;;13.80;99.90;;;;;;5115882;27;19978;-75
2022/09/12 02:44:47;;;;;;;;;;;13.80;99.90;;;;;;5094493;28;19930;-75
2022/09/12 02:47:32;;;;;;;;;;;13.80;99.90;;;;;;5101825;27;19928;-75
2022/09/12 02:49:59;;;;;;;;;;;13.70;99.90;;;;;;5073017;28;19992;-77
2022/09/12 02:52:26;;;;;;;;;;;13.70;99.90;;;;;;5131997;27;20633;-77
2022/09/12 02:54:52;;;;;;;;;;;13.60;99.90;;;;;;5128416;27;20029;-75
2022/09/12 02:57:19;;;;;;;;;;;13.60;99.90;;;;;;5106049;27;20382;-75
2022/09/12 02:59:44;;;;;;;;;;;13.60;99.90;;;;;;5132425;27;19931;-75
2022/09/12 03:02:10;;;;;;;;;;;13.60;99.90;;;;;;5115653;27;19923;-75
2022/09/12 03:04:54;;;;;;;;;;;13.70;99.90;;;;;;5112453;27;19992;-75
2022/09/12 03:07:20;;;;;;;;;;;13.70;99.90;;;;;;5104625;27;19939;-75
2022/09/12 03:09:48;;;;;;;;;;;13.70;99.90;;;;;;5125077;27;19928;-75
2022/09/12 03:12:17;;;;;;;;;;;13.70;99.90;;;;;;5138373;27;19927;-75
2022/09/12 03:15:01;;;;;;;;;;;13.70;99.90;;;;;;5108186;27;19934;-75
2022/09/12 03:17:36;;;;;;;;;;;13.80;99.90;;;;;;5113076;27;19930;-76
2022/09/12 03:20:02;;;;;;;;;;;13.80;99.90;;;;;;5132134;27;19967;-75
2022/09/12 03:22:27;;;;;;;;;;;13.80;99.90;;;;;;5102771;27;19974;-76
2022/09/12 03:25:00;;;;;;;;;;;13.80;99.90;;;;;;5132698;27;20269;-76
2022/09/12 03:27:28;;;;;;;;;;;13.80;99.90;;;;;;5127841;27;19923;-75
2022/09/12 03:29:54;;;;;;;;;;;13.90;99.90;;;;;;5132097;27;20421;-76
2022/09/12 03:32:38;;;;;;;;;;;13.90;99.90;;;;;;5100945;28;19924;-77
2022/09/12 03:35:03;;;;;;;;;;;13.90;99.90;;;;;;5125830;28;20310;-77
2022/09/12 03:37:29;;;;;;;;;;;13.90;99.90;;;;;;5106290;28;20023;-76
2022/09/12 03:39:54;;;;;;;;;;;13.90;99.90;;;;;;5101904;28;19924;-75
2022/09/12 03:42:20;;;;;;;;;;;13.90;99.90;;;;;;5125374;28;19924;-75
2022/09/12 03:44:45;;;;;;;;;;;14.00;99.90;;;;;;5132221;28;19924;-75
2022/09/12 03:47:11;;;;;;;;;;;14.00;99.90;;;;;;5107012;28;19924;-75
2022/09/12 03:49:37;;;;;;;;;;;14.00;99.90;;;;;;5111542;28;19976;-75
2022/09/12 03:52:02;;;;;;;;;;;14.10;99.90;;;;;;5097575;28;19962;-75
2022/09/12 03:54:28;;;;;;;;;;;14.10;99.90;;;;;;5099082;28;19944;-75
2022/09/12 03:56:53;;;;;;;;;;;14.10;99.90;;;;;;5131793;28;19971;-76
2022/09/12 03:59:19;;;;;;;;;;;14.20;99.90;;;;;;5105855;28;19933;-75
2022/09/12 04:01:44;;;;;;;;;;;14.20;99.90;;;;;;5106117;28;19931;-75
2022/09/12 04:04:10;;;;;;;;;;;14.20;99.90;;;;;;5128022;28;19924;-75
2022/09/12 04:06:36;;;;;;;;;;;14.20;99.90;;;;;;5115455;28;19929;-75
2022/09/12 04:09:01;;;;;;;;;;;14.30;99.90;;;;;;5131874;28;19930;-75
2022/09/12 04:11:27;;;;;;;;;;;14.30;99.90;;;;;;5142754;27;19923;-75
2022/09/12 04:13:52;;;;;;;;;;;14.30;99.90;;;;;;5131667;28;19934;-75
2022/09/12 04:16:18;;;;;;;;;;;14.40;99.90;;;;;;5115791;28;19923;-75
2022/09/12 04:18:44;;;;;;;;;;;14.40;99.90;;;;;;5131549;28;20204;-75
2022/09/12 04:21:12;;;;;;;;;;;14.40;99.90;;;;;;5124492;28;19930;-75
2022/09/12 04:23:38;;;;;;;;;;;14.50;99.90;;;;;;5117789;28;19931;-75
2022/09/12 04:26:05;;;;;;;;;;;14.50;99.90;;;;;;5112391;28;19923;-75
2022/09/12 04:28:31;;;;;;;;;;;14.50;99.90;;;;;;5132392;28;19923;-75
2022/09/12 04:31:06;;;;;;;;;;;14.60;99.90;;;;;;5115138;28;19924;-75
2022/09/12 04:33:32;;;;;;;;;;;14.60;99.90;;;;;;5098760;28;19931;-75
2022/09/12 04:36:05;;;;;;;;;;;14.60;99.90;;;;;;5111826;28;19930;-75
2022/09/12 04:38:31;;;;;;;;;;;14.60;99.90;;;;;;5091585;28;19924;-76
2022/09/12 04:40:56;;;;;;;;;;;14.60;99.90;;;;;;5096096;28;19996;-74
2022/09/12 04:43:22;;;;;;;;;;;14.60;99.90;;;;;;5097944;28;19935;-78
2022/09/12 04:45:47;;;;;;;;;;;14.60;99.90;;;;;;5098290;28;19924;-74
2022/09/12 04:48:13;;;;;;;;;;;14.60;99.90;;;;;;5115154;28;20385;-75
2022/09/12 04:50:39;;;;;;;;;;;14.60;99.90;;;;;;5094867;28;19931;-74
2022/09/12 04:53:05;;;;;;;;;;;14.60;99.90;;;;;;5107511;28;19995;-74
2022/09/12 04:55:32;;;;;;;;;;;14.60;99.90;;;;;;5113836;28;20390;-74
2022/09/12 04:57:59;;;;;;;;;;;14.60;99.90;;;;;;5106544;28;19932;-74
2022/09/12 05:00:25;;;;;;;;;;;14.60;99.90;;;;;;5108149;28;19927;-74
2022/09/12 05:02:50;;;;;;;;;;;14.60;99.90;;;;;;5077321;28;19978;-74
2022/09/12 05:05:16;;;;;;;;;;;14.60;99.90;;;;;;5097579;28;19931;-74
2022/09/12 05:07:41;;;;;;;;;;;14.60;99.90;;;;;;5094778;28;19924;-74
2022/09/12 05:10:08;;;;;;;;;;;14.60;99.90;;;;;;5085298;28;20324;-74
2022/09/12 05:12:33;;;;;;;;;;;14.60;99.90;;;;;;5107391;28;19932;-75
2022/09/12 05:14:59;;;;;;;;;;;14.60;99.90;;;;;;5105899;28;19957;-74
2022/09/12 05:17:24;;;;;;;;;;;14.60;99.90;;;;;;5087975;28;19924;-75
2022/09/12 05:19:50;;;;;;;;;;;14.50;99.90;;;;;;5105300;28;19977;-74
2022/09/12 05:22:16;;;;;;;;;;;14.50;99.90;;;;;;5104904;28;19976;-74
2022/09/12 05:24:42;;;;;;;;;;;14.50;99.90;;;;;;5093259;28;20022;-75
2022/09/12 05:27:08;;;;;;;;;;;14.50;99.90;;;;;;5083771;28;19947;-73
2022/09/12 05:29:33;;;;;;;;;;;14.50;99.90;;;;;;5113741;28;20382;-73
2022/09/12 05:31:59;;;;;;;;;;;14.60;99.90;;;;;;5114330;28;19934;-73
2022/09/12 05:34:26;;;;;;;;;;;14.60;99.90;;;;;;5129593;27;19923;-73
2022/09/12 05:36:52;;;;;;;;;;;14.60;99.90;;;;;;5108896;27;19923;-73
2022/09/12 05:39:17;;;;;;;;;;;14.60;99.90;;;;;;5127529;27;19923;-73
2022/09/12 05:41:43;;;;;;;;;;;14.60;99.90;;;;;;5121080;27;20018;-74
2022/09/12 05:44:13;;;;;;;;;;;14.60;99.90;;;;;;5114632;27;19931;-73
2022/09/12 05:46:40;;;;;;;;;;;14.60;99.90;;;;;;5106786;28;19931;-73
2022/09/12 05:49:10;;;;;;;;;;;14.60;99.90;;;;;;5122848;27;20018;-72
2022/09/12 05:51:37;;;;;;;;;;;14.60;99.90;;;;;;5135053;27;19930;-77
2022/09/12 05:54:04;;;;;;;;;;;14.70;99.90;;;;;;5118140;27;19970;-76
2022/09/12 05:56:31;;;;;;;;;;;14.70;99.90;;;;;;5103315;27;19931;-76
2022/09/12 05:58:57;;;;;;;;;;;14.70;99.90;;;;;;5134696;27;19931;-75
2022/09/12 06:01:23;;;;;;;;;;;14.70;99.90;;;;;;5134403;27;19923;-71
2022/09/12 06:03:50;;;;;;;;;;;14.70;99.90;;;;;;5131407;27;19940;-76
2022/09/12 06:06:17;;;;;;;;;;;14.70;99.90;;;;;;5105893;27;19934;-72
2022/09/12 06:08:45;;;;;;;;;;;14.80;99.90;;;;;;5144388;27;19930;-72
2022/09/12 06:11:13;;;;;;;;;;;14.80;99.90;;;;;;5132589;27;19923;-73
2022/09/12 06:13:39;;;;;;;;;;;14.80;99.90;;;;;;5134274;27;19988;-74
2022/09/12 06:16:09;;;;;;;;;;;14.80;99.90;;;;;;5096238;28;19931;-73
2022/09/12 06:18:35;;;;;;;;;;;14.80;99.90;;;;;;5130227;27;19923;-72
2022/09/12 06:21:02;;;;;;;;;;;14.90;99.90;;;;;;5133411;27;20282;-73
2022/09/12 06:23:28;;;;;;;;;;;14.90;99.90;;;;;;5117262;27;19923;-73
2022/09/12 06:25:54;;;;;;;;;;;14.90;99.90;;;;;;5134176;27;20026;-73
2022/09/12 06:28:19;;;;;;;;;;;14.90;99.90;;;;;;5123579;27;20367;-72
2022/09/12 06:30:45;;;;;;;;;;;15.00;99.90;;;;;;5107270;27;19924;-73
2022/09/12 06:33:10;;;;;;;;;;;15.00;99.90;;;;;;5119919;27;19963;-74
2022/09/12 06:35:37;;;;;;;;;;;15.10;99.90;;;;;;5107685;28;19928;-72
2022/09/12 06:38:03;;;;;;;;;;;15.10;99.90;;;;;;5106834;28;19931;-73
2022/09/12 06:40:28;;;;;;;;;;;15.20;99.90;;;;;;5109769;28;19967;-72
2022/09/12 06:42:54;;;;;;;;;;;15.20;99.90;;;;;;5111530;28;19931;-73
2022/09/12 06:45:20;;;;;;;;;;;15.20;99.90;;;;;;5090625;28;19924;-74
2022/09/12 06:47:45;;;;;;;;;;;15.30;99.90;;;;;;5111077;28;20002;-73
2022/09/12 06:50:11;;;;;;;;;;;15.30;99.90;;;;;;5112315;28;19935;-72
2022/09/12 06:52:36;;;;;;;;;;;15.30;99.90;;;;;;5111355;28;19977;-72
2022/09/12 06:55:02;;;;;;;;;;;15.40;99.90;;;;;;5109094;28;20297;-73
2022/09/12 06:57:30;;;;;;;;;;;15.40;99.90;;;;;;5111826;28;19924;-71
2022/09/12 06:59:55;;;;;;;;;;;15.40;99.90;;;;;;5109003;28;20015;-72
2022/09/12 07:02:21;;;;;;;;;;;15.50;99.90;;;;;;5095967;28;20383;-71
2022/09/12 07:04:48;;;;;;;;;;;15.60;99.90;;;;;;5095809;28;19924;-71
2022/09/12 07:07:14;;;;;;;;;;;15.60;99.90;;;;;;5113482;28;20404;-71
2022/09/12 07:09:40;;;;;;;;;;;15.60;99.90;;;;;;5096162;28;19923;-72
2022/09/12 07:12:05;;;;;;;;;;;15.70;99.90;;;;;;5112885;28;19947;-76
2022/09/12 07:14:31;;;;;;;;;;;15.70;99.90;;;;;;5095705;28;19931;-75
2022/09/12 07:16:57;;;;;;;;;;;15.70;99.90;;;;;;5112669;28;19928;-74
2022/09/12 07:19:23;;;;;;;;;;;15.80;99.90;;;;;;5079181;28;19923;-74
2022/09/12 07:21:49;;;;;;;;;;;15.80;99.90;;;;;;5096056;28;19923;-74
2022/09/12 07:24:14;;;;;;;;;;;15.90;99.90;;;;;;5095749;28;19927;-74
2022/09/12 07:26:40;;;;;;;;;;;16.00;99.90;;;;;;5095254;28;20379;-75
2022/09/12 07:29:11;;;;;;;;;;;16.00;99.90;;;;;;5095320;28;19931;-81
2022/09/12 07:31:37;;;;;;;;;;;16.10;99.90;;;;;;5092402;28;19924;-81
2022/09/12 07:34:05;;;;;;;;;;;16.10;99.90;;;;;;5105070;28;20006;-83
2022/09/12 07:36:31;;;;;;;;;;;16.10;99.90;;;;;;5101354;28;19930;-82
2022/09/12 07:38:57;;;;;;;;;;;16.20;99.90;;;;;;5096325;28;20400;-84
2022/09/12 07:41:24;;;;;;;;;;;16.30;99.90;;;;;;5124412;28;19924;-83
2022/09/12 07:43:50;;;;;;;;;;;16.40;99.90;;;;;;5133131;28;20271;-84
2022/09/12 07:46:16;;;;;;;;;;;16.40;99.90;;;;;;5133067;28;19930;-74
2022/09/12 07:48:43;;;;;;;;;;;16.50;99.90;;;;;;5102150;28;19924;-76
2022/09/12 07:51:09;;;;;;;;;;;16.60;99.90;;;;;;5111953;28;20413;-78
2022/09/12 07:53:36;;;;;;;;;;;16.60;99.90;;;;;;5129752;28;19923;-76
2022/09/12 07:56:03;;;;;;;;;;;16.70;99.90;;;;;;5112840;28;19982;-76
2022/09/12 07:58:29;;;;;;;;;;;16.80;99.90;;;;;;5111226;28;20212;-76
2022/09/12 08:01:02;;;;;;;;;;;16.90;99.90;;;;;;5130287;28;19968;-75
2022/09/12 08:03:28;;;;;;;;;;;17.00;99.90;;;;;;5124335;28;19966;-76
2022/09/12 08:05:54;;;;;;;;;;;17.10;99.90;;;;;;5109698;28;19981;-76
2022/09/12 08:08:19;;;;;;;;;;;17.10;99.90;;;;;;5112862;28;19931;-76
2022/09/12 08:10:45;;;;;;;;;;;17.20;99.90;;;;;;5111060;28;19932;-77
2022/09/12 08:13:10;;;;;;;;;;;17.20;99.90;;;;;;5112423;28;19927;-79
2022/09/12 08:15:36;;;;;;;;;;;17.40;99.90;;;;;;5094225;28;19924;-76
2022/09/12 08:18:01;;;;;;;;;;;17.40;99.90;;;;;;5096137;28;20383;-79
2022/09/12 08:20:27;;;;;;;;;;;17.50;99.90;;;;;;5113497;27;19950;-78
2022/09/12 08:22:53;;;;;;;;;;;17.60;99.90;;;;;;5116905;27;19927;-76
2022/09/12 08:25:18;;;;;;;;;;;17.60;99.90;;;;;;5102504;28;19989;-78
2022/09/12 08:27:45;;;;;;;;;;;17.70;99.90;;;;;;5078763;28;19932;-77
2022/09/12 08:30:11;;;;;;;;;;;17.80;99.90;;;;;;5096106;28;20348;-77
2022/09/12 08:32:37;;;;;;;;;;;18.00;99.90;;;;;;5113995;27;20386;-81
2022/09/12 08:35:02;;;;;;;;;;;18.00;99.90;;;;;;5125322;27;19923;-81
2022/09/12 08:37:29;;;;;;;;;;;18.10;99.90;;;;;;5119980;27;19952;-75
2022/09/12 08:39:55;;;;;;;;;;;18.10;99.90;;;;;;5137090;27;20391;-74
2022/09/12 08:42:26;;;;;;;;;;;18.10;99.90;;;;;;5119839;27;19927;-77
2022/09/12 08:45:15;;;;;;;;;;;18.10;99.90;;;;;;5170664;27;19987;-75
2022/09/12 08:47:42;;;;;;;;;;;18.20;99.90;;;;;;5125641;27;20378;-76
2022/09/12 08:50:11;;;;;;;;;;;18.30;99.90;;;;;;5136317;27;19924;-77
2022/09/12 08:52:57;;;;;;;;;;;18.40;99.90;;;;;;5116746;27;19931;-76
2022/09/12 08:55:37;;;;;;;;;;;18.60;99.90;;;;;;5125509;27;20302;-75
2022/09/12 08:58:26;;;;;;;;;;;18.80;99.90;;;;;;5136709;27;19930;-75
2022/09/12 09:01:07;;;;;;;;;;;19.10;99.90;;;;;;5098979;27;19985;-76
2022/09/12 09:03:51;;;;;;;;;;;19.20;99.90;;;;;;5098730;27;19971;-75
2022/09/12 09:06:17;;;;;;;;;;;19.30;99.90;;;;;;5099114;27;19927;-76
2022/09/12 09:08:52;;;;;;;;;;;19.30;99.90;;;;;;5127202;27;19930;-76
2022/09/12 09:11:37;;;;;;;;;;;19.40;99.90;;;;;;5125169;27;19923;-74
2022/09/12 09:16:56;;;;;;;;;;;19.50;99.90;;;;;;5129390;27;19923;-74
2022/09/12 09:19:27;;;;;;;;;;;19.60;99.90;;;;;;5118457;27;19932;-76
2022/09/12 09:21:56;;;;;;;;;;;19.70;99.90;;;;;;5136006;27;19919;-74
2022/09/12 09:24:25;;;;;;;;;;;19.90;99.90;;;;;;5136043;27;20007;-74
2022/09/12 09:26:51;;;;;;;;;;;20.00;99.90;;;;;;5135563;27;19923;-75
2022/09/12 09:29:18;;;;;;;;;;;20.00;99.90;;;;;;5125319;27;20042;-76
2022/09/12 09:31:47;;;;;;;;;;;20.00;99.90;;;;;;5126789;27;19929;-74
2022/09/12 09:34:20;;;;;;;;;;;20.00;99.90;;;;;;5108798;27;19923;-73
2022/09/12 09:36:50;;;;;;;;;;;19.90;99.90;;;;;;5109313;27;19923;-77
2022/09/12 09:39:23;;;;;;;;;;;20.00;99.90;;;;;;5117519;27;20364;-78
2022/09/12 09:42:04;;;;;;;;;;;20.10;99.90;;;;;;5127318;27;20271;-74
2022/09/12 09:44:30;;;;;;;;;;;20.20;99.90;;;;;;5129296;27;19934;-76
2022/09/12 09:46:57;;;;;;;;;;;20.30;99.90;;;;;;5129510;27;19927;-74
2022/09/12 09:49:24;;;;;;;;;;;20.50;99.90;;;;;;5130614;27;19923;-76
2022/09/12 09:51:50;;;;;;;;;;;20.40;99.90;;;;;;5115536;27;19931;-76
2022/09/12 09:54:15;;;;;;;;;;;20.30;99.90;;;;;;5117500;27;19941;-76
2022/09/12 09:56:41;;;;;;;;;;;20.30;99.90;;;;;;5135078;27;19930;-74
2022/09/12 09:59:10;;;;;;;;;;;20.40;99.90;;;;;;5131847;27;19930;-80
2022/09/12 10:01:38;;;;;;;;;;;20.50;99.90;;;;;;5133698;27;19927;-82
2022/09/12 10:04:04;;;;;;;;;;;20.50;99.90;;;;;;5114303;27;20369;-81
2022/09/12 10:06:36;;;;;;;;;;;20.60;99.90;;;;;;5101064;27;20010;-78
2022/09/12 10:09:03;;;;;;;;;;;20.70;99.90;;;;;;5118202;27;19927;-78
2022/09/12 10:11:31;;;;;;;;;;;20.80;99.90;;;;;;5114841;27;19970;-76
2022/09/12 10:13:58;;;;;;;;;;;21.00;99.90;;;;;;5117266;27;20035;-77
2022/09/12 10:16:26;;;;;;;;;;;21.20;99.90;;;;;;5135010;27;19931;-74
2022/09/12 10:18:53;;;;;;;;;;;21.20;99.90;;;;;;5122482;27;19939;-79
2022/09/12 10:21:18;;;;;;;;;;;21.30;99.90;;;;;;5127416;27;19927;-79
2022/09/12 10:23:45;;;;;;;;;;;21.30;99.90;;;;;;5110769;27;19927;-79
2022/09/12 10:26:15;;;;;;;;;;;21.20;99.90;;;;;;5126002;27;19923;-79
2022/09/12 10:28:44;;;;;;;;;;;21.30;99.90;;;;;;5109701;27;19927;-78
2022/09/12 10:31:13;;;;;;;;;;;21.40;99.90;;;;;;5109298;27;20029;-79
2022/09/12 10:33:44;;;;;;;;;;;21.40;99.90;;;;;;5130126;27;19929;-78
2022/09/12 10:36:09;;;;;;;;;;;21.60;99.90;;;;;;5109330;27;20010;-78
2022/09/12 10:38:35;;;;;;;;;;;21.70;99.90;;;;;;5102724;27;20034;-78
2022/09/12 10:41:05;;;;;;;;;;;21.90;99.90;;;;;;5085165;27;19988;-79
2022/09/12 10:43:36;;;;;;;;;;;22.10;99.90;;;;;;5125225;27;19934;-78
2022/09/12 10:46:14;;;;;;;;;;;22.40;99.90;;;;;;5117105;27;19923;-79
2022/09/12 10:48:40;;;;;;;;;;;22.40;99.90;;;;;;5112200;27;20695;-79
2022/09/12 10:51:13;;;;;;;;;;;22.50;99.90;;;;;;5098256;27;19930;-77
2022/09/12 10:53:40;;;;;;;;;;;22.80;99.90;;;;;;5119845;27;20480;-80
2022/09/12 10:56:08;;;;;;;;;;;22.80;99.90;;;;;;5114320;27;19972;-79
2022/09/12 10:58:33;;;;;;;;;;;23.10;99.90;;;;;;5125657;27;20053;-79
2022/09/12 11:01:08;;;;;;;;;;;23.10;99.90;;;;;;5134457;27;19989;-79
2022/09/12 11:03:49;;;;;;;;;;;23.10;99.90;;;;;;5113507;27;19939;-79
2022/09/12 11:06:19;;;;;;;;;;;23.30;99.90;;;;;;5121026;27;19934;-81
2022/09/12 11:09:03;;;;;;;;;;;23.60;99.90;;;;;;5133957;27;20539;-78
2022/09/12 11:11:41;;;;;;;;;;;23.80;99.90;;;;;;5114868;27;19942;-82
2022/09/12 11:14:07;;;;;;;;;;;23.90;99.90;;;;;;5127378;27;20413;-84
2022/09/12 11:16:51;;;;;;;;;;;24.00;99.90;;;;;;5107158;27;19938;-80
2022/09/12 11:19:17;;;;;;;;;;;24.10;99.90;;;;;;5145234;27;20369;-80
2022/09/12 11:22:03;;;;;;;;;;;24.40;99.90;;;;;;5106869;27;20018;-80
2022/09/12 11:24:47;;;;;;;;;;;24.90;99.90;;;;;;5108665;27;20013;-78
2022/09/12 11:27:25;;;;;;;;;;;25.10;99.90;;;;;;5130556;27;20551;-77
2022/09/12 11:30:09;;;;;;;;;;;25.30;99.90;;;;;;5112638;27;19924;-77
2022/09/12 11:32:54;;;;;;;;;;;25.50;99.90;;;;;;5114198;27;20365;-77
2022/09/12 11:35:24;;;;;;;;;;;25.40;99.90;;;;;;5079978;28;19924;-79
2022/09/12 11:37:53;;;;;;;;;;;25.10;99.90;;;;;;5092946;28;19927;-79
2022/09/12 11:40:22;;;;;;;;;;;24.90;99.90;;;;;;5109603;28;19935;-80
2022/09/12 11:42:50;;;;;;;;;;;24.80;99.90;;;;;;5107934;28;19948;-79
2022/09/12 11:45:18;;;;;;;;;;;24.80;99.90;;;;;;5108993;28;19974;-79
2022/09/12 11:47:47;;;;;;;;;;;24.70;99.90;;;;;;5089192;28;19928;-80
2022/09/12 11:50:22;;;;;;;;;;;24.60;99.90;;;;;;5105108;28;20279;-78
2022/09/12 11:52:49;;;;;;;;;;;24.50;99.90;;;;;;5112802;28;19924;-79
2022/09/12 11:55:19;;;;;;;;;;;24.50;99.90;;;;;;5107725;28;20379;-79
2022/09/12 11:57:51;;;;;;;;;;;24.40;99.90;;;;;;5103731;28;19931;-78
2022/09/12 12:00:17;;;;;;;;;;;24.40;99.90;;;;;;5096854;28;19932;-78
2022/09/12 12:02:49;;;;;;;;;;;24.30;99.90;;;;;;5091250;28;19931;-78
2022/09/12 12:05:24;;;;;;;;;;;24.40;99.90;;;;;;5099763;28;19981;-78
2022/09/12 12:07:54;;;;;;;;;;;24.30;99.90;;;;;;5115207;28;20296;-78
2022/09/12 12:10:39;;;;;;;;;;;24.40;99.90;;;;;;5099415;28;19928;-78
2022/09/12 12:13:21;;;;;;;;;;;24.50;99.90;;;;;;5096232;28;19931;-79
2022/09/12 12:15:57;;;;;;;;;;;24.60;99.90;;;;;;5078884;28;19989;-78
2022/09/12 12:18:23;;;;;;;;;;;24.60;99.90;;;;;;5079231;28;19939;-78
2022/09/12 12:20:49;;;;;;;;;;;24.50;99.90;;;;;;5095662;28;20011;-78
2022/09/12 12:23:44;;;;;;;;;;;24.50;99.90;;;;;;5101239;28;20447;-78
2022/09/12 12:26:30;;;;;;;;;;;24.50;99.90;;;;;;5042832;28;20340;-78
2022/09/12 12:28:57;;;;;;;;;;;24.70;99.90;;;;;;5098027;28;19924;-86
2022/09/12 12:31:22;;;;;;;;;;;25.10;99.90;;;;;;5116390;28;20064;-81
2022/09/12 12:33:48;;;;;;;;;;;25.00;99.90;;;;;;5087986;28;19998;-78
2022/09/12 12:36:30;;;;;;;;;;;24.90;99.90;;;;;;5116154;28;19935;-81
2022/09/12 12:38:55;;;;;;;;;;;25.00;99.90;;;;;;5111626;27;20286;-80
2022/09/12 12:41:22;;;;;;;;;;;25.20;99.90;;;;;;5116547;27;19924;-79
2022/09/12 12:43:48;;;;;;;;;;;25.40;99.90;;;;;;5113437;27;19923;-80
2022/09/12 12:46:15;;;;;;;;;;;25.60;99.90;;;;;;5118266;27;20056;-79
2022/09/12 12:48:55;;;;;;;;;;;25.80;99.90;;;;;;5135451;27;19949;-81
2022/09/12 12:51:26;;;;;;;;;;;25.60;99.90;;;;;;5119344;27;19923;-80
2022/09/12 12:53:53;;;;;;;;;;;25.40;99.90;;;;;;5124507;27;19998;-80
2022/09/12 12:56:27;;;;;;;;;;;25.50;99.90;;;;;;5117326;27;19929;-79
2022/09/12 12:58:57;;;;;;;;;;;25.90;99.90;;;;;;5119434;27;19977;-78
2022/09/12 13:01:23;;;;;;;;;;;25.70;99.90;;;;;;5115108;28;20397;-78
2022/09/12 13:03:54;;;;;;;;;;;25.70;99.90;;;;;;5116312;27;19924;-77
2022/09/12 13:06:23;;;;;;;;;;;25.70;99.90;;;;;;5130892;27;19924;-76
2022/09/12 13:08:55;;;;;;;;;;;25.80;99.90;;;;;;5108588;28;19924;-76
2022/09/12 13:11:29;;;;;;;;;;;25.90;99.90;;;;;;5115330;28;19923;-77
2022/09/12 13:14:00;;;;;;;;;;;25.90;99.90;;;;;;5114693;28;19924;-77
2022/09/12 13:16:49;;;;;;;;;;;26.10;99.90;;;;;;5126113;27;20016;-77
2022/09/12 13:19:21;;;;;;;;;;;26.80;99.90;;;;;;5119749;27;19977;-78
2022/09/12 13:21:59;;;;;;;;;;;27.10;99.50;;;;;;5126869;27;19945;-77
2022/09/12 13:24:24;;;;;;;;;;;27.70;99.90;;;;;;5104076;27;20385;-80
2022/09/12 13:26:50;;;;;;;;;;;27.90;99.00;;;;;;5112981;27;19934;-79
2022/09/12 13:29:20;;;;;;;;;;;28.10;98.30;;;;;;5123081;27;19970;-79
2022/09/12 13:31:48;;;;;;;;;;;28.30;98.60;;;;;;5116144;27;19934;-78
2022/09/12 13:34:18;;;;;;;;;;;28.50;97.80;;;;;;5094023;28;20536;-79
2022/09/12 13:37:03;;;;;;;;;;;28.80;98.30;;;;;;5096756;28;20022;-78
2022/09/12 13:39:32;;;;;;;;;;;28.80;97.70;;;;;;5094950;28;19989;-79
2022/09/12 13:42:16;;;;;;;;;;;29.20;98.30;;;;;;5110425;28;19927;-77
2022/09/12 13:45:00;;;;;;;;;;;29.00;96.70;;;;;;5085973;28;19928;-78
2022/09/12 13:47:26;;;;;;;;;;;29.60;97.30;;;;;;5103975;28;19928;-77
2022/09/12 13:49:53;;;;;;;;;;;29.80;95.20;;;;;;5087342;28;19924;-75
2022/09/12 13:52:20;;;;;;;;;;;30.00;95.20;;;;;;5102448;28;19924;-79
2022/09/12 13:54:47;;;;;;;;;;;30.20;95.30;;;;;;5097577;28;20060;-81
2022/09/12 13:57:31;;;;;;;;;;;29.90;95.00;;;;;;5086207;28;20323;-81
2022/09/12 13:59:57;;;;;;;;;;;29.40;94.40;;;;;;5101526;28;19935;-80
2022/09/12 14:02:24;;;;;;;;;;;29.00;94.50;;;;;;5089745;28;19923;-81
2022/09/12 14:05:07;;;;;;;;;;;28.80;95.30;;;;;;5095575;28;19931;-80
2022/09/12 14:07:38;;;;;;;;;;;28.90;95.00;;;;;;5101456;28;20002;-81
2022/09/12 14:10:04;;;;;;;;;;;29.30;96.00;;;;;;5105820;28;20031;-81
2022/09/12 14:12:35;;;;;;;;;;;29.10;95.00;;;;;;5069968;28;19966;-81
2022/09/12 14:15:01;;;;;;;;;;;29.30;95.50;;;;;;5102894;28;19928;-80
2022/09/12 14:17:31;;;;;;;;;;;29.30;94.00;;;;;;5089317;28;19928;-82
2022/09/12 14:20:00;;;;;;;;;;;28.70;94.50;;;;;;5104412;28;20386;-81
2022/09/12 14:22:28;;;;;;;;;;;28.80;94.90;;;;;;5084780;28;19940;-82
2022/09/12 14:24:55;;;;;;;;;;;28.80;94.90;;;;;;5103300;28;19932;-81
2022/09/12 14:27:27;;;;;;;;;;;28.80;94.60;;;;;;5106693;28;20287;-81
2022/09/12 14:29:56;;;;;;;;;;;29.00;95.40;;;;;;5101362;28;20228;-81
2022/09/12 14:32:23;;;;;;;;;;;29.10;95.40;;;;;;5085232;28;19934;-82